Latest Weather Observations for Macquarie Island

IDT60801

Issued at 5:01 am EST Friday 28 August 2015 (issued every 30 minutes, with the page automatically refreshed every 10 minutes)

About weather observations | Map of weather stations | Latest weather observations for TAS | Other Formats
Station Details ID: 300004 Name: MACQUARIE ISLAND Lat: -54.50 Lon: 158.94 Height: 6.0 m
Data from the previous 72 hours. | See also: Recent months at Macquarie Island
Date/Time
EST
Temp
°C
App
Temp
°C
Dew
Point
Rel
Hum
%
Delta-T
°C
Wind Press
QNH
hPa
Press
MSL
hPa
Rain
since 9 am
mm
Dir
 
Spd
km/h
Gust
km/h
Spd
kts
Gust
kts
28/05:00am -0.9 -4.2 -4.6 76 1.1 WSW 4 7 2 4 1023.6 - 2.4
28/04:30am -0.9 -4.8 -5.1 73 1.3 WSW 7 11 4 6 1023.5 - 2.4
28/04:00am -0.1 -4.8 -4.9 70 1.5 SSW 11 15 6 8 1023.4 - 2.4
28/03:30am -0.6 -4.9 -5.2 71 1.4 SSW 9 13 5 7 1023.2 - 2.4
28/03:00am -0.7 -5.4 -5.5 70 1.5 SSW 11 15 6 8 1023.2 1023.5 2.4
28/02:30am -0.9 -5.6 -5.5 71 1.4 SSW 11 13 6 7 1022.9 - 2.4
28/02:00am -1.0 -5.8 -5.6 71 1.4 SSW 11 15 6 8 1022.8 - 2.4
28/01:30am -0.8 -5.9 -5.6 70 1.4 SSW 13 19 7 10 1022.6 - 2.4
28/01:00am -0.5 -5.2 -5.5 69 1.5 SSW 11 15 6 8 1022.4 - 2.4
28/12:30am -0.3 -5.4 -5.5 68 1.6 SSW 13 17 7 9 1022.1 - 2.4
28/12:00am -0.4 -5.1 -5.2 70 1.5 SSW 11 17 6 9 1021.6 1021.9 2.4
 
Date/Time
EST
Temp
°C
App
Temp
°C
Dew
Point
Rel
Hum
%
Delta-T
°C
Wind Press
QNH
hPa
Press
MSL
hPa
Rain
since 9 am
mm
Dir
 
Spd
km/h
Gust
km/h
Spd
kts
Gust
kts
27/11:30pm -0.6 -5.3 -5.2 71 1.4 SSW 11 15 6 8 1021.1 - 2.4
27/11:00pm -0.5 -5.6 -5.1 71 1.4 SSW 13 17 7 9 1020.9 - 2.4
27/10:30pm 0.4 -4.9 -4.0 72 1.5 SSW 15 22 8 12 1020.7 - 2.4
27/10:00pm 0.6 -5.1 -3.5 74 1.4 SSW 17 24 9 13 1020.1 - 2.4
27/09:30pm 0.7 -6.2 -3.0 76 1.3 SW 24 35 13 19 1019.9 - 2.4
27/09:00pm 1.0 -5.2 -3.1 74 1.4 SSW 20 32 11 17 1019.4 1019.7 2.4
27/08:30pm 1.0 -4.6 -2.7 76 1.3 SSW 17 28 9 15 1018.8 - 2.4
27/08:00pm 0.9 -5.3 -2.8 76 1.3 SSW 20 30 11 16 1018.4 - 2.4
27/07:30pm 0.8 -4.8 -2.6 78 1.2 SSW 17 24 9 13 1018.0 - 2.4
27/07:00pm 0.9 -4.9 -1.5 84 0.8 SSW 19 28 10 15 1017.4 - 2.4
27/06:30pm 0.7 -3.9 -1.1 88 0.6 WSW 13 20 7 11 1016.8 - 2.4
27/06:00pm 0.4 -3.5 -1.2 89 0.6 SW 9 15 5 8 1016.2 1016.5 2.4
27/05:30pm 0.4 -3.5 -1.2 89 0.6 SSW 9 17 5 9 1015.8 - 2.4
27/05:00pm 0.1 -3.4 -1.3 90 0.5 SW 7 11 4 6 1015.2 - 2.4
27/04:30pm 0.0 -5.0 -1.3 91 0.5 SW 15 22 8 12 1014.7 - 2.2
27/04:00pm -0.1 -4.3 -1.2 92 0.4 SSW 11 17 6 9 1014.1 - 2.2
27/03:30pm -0.1 -5.9 -1.2 92 0.4 WSW 19 30 10 16 1013.8 - 2.2
27/03:00pm 0.0 -5.4 -1.3 91 0.5 WSW 17 26 9 14 1013.4 1013.7 2.2
27/02:30pm -0.1 -4.8 -1.5 90 0.5 SW 13 22 7 12 1013.0 - 2.2
27/02:00pm 0.0 -6.0 -1.4 90 0.5 SW 20 33 11 18 1012.8 - 2.2
27/01:30pm 0.2 -5.8 -1.4 89 0.6 SW 20 32 11 17 1012.3 - 2.0
27/01:00pm 0.6 -5.7 -1.0 89 0.6 WSW 22 33 12 18 1012.0 - 1.8
27/12:30pm 0.6 -5.2 -1.2 88 0.7 SSW 19 28 10 15 1011.9 - 1.6
27/12:00pm 1.1 -3.0 -0.5 89 0.6 WSW 11 20 6 11 1011.6 1011.9 1.6
27/11:30am 1.1 -4.2 -0.4 90 0.5 W 17 28 9 15 1011.3 - 1.4
27/11:00am 1.2 -4.6 -0.3 90 0.5 W 20 33 11 18 1011.2 - 1.2
27/10:30am 1.3 -4.3 0.0 91 0.5 W 19 37 10 20 1011.0 - 1.0
27/10:00am 1.1 -4.2 -0.4 90 0.5 W 17 30 9 16 1010.9 - 0.8
27/09:30am 1.1 -4.1 -0.2 91 0.5 W 17 26 9 14 1010.8 - 0.6
27/09:00am 0.7 -4.6 -0.6 91 0.5 WSW 17 26 9 14 1010.7 1011.0 4.6
27/08:30am 1.7 -4.4 0.5 92 0.4 W 22 28 12 15 1010.4 - 4.4
27/08:00am 1.7 -5.5 0.5 92 0.4 W 28 32 15 17 1010.3 - 4.2
27/07:30am 1.5 -5.8 -0.1 89 0.6 W 28 35 15 19 1010.1 - 3.8
27/07:00am 1.7 -6.4 -0.4 86 0.8 W 32 44 17 24 1009.8 - 3.8
27/06:30am 1.7 -5.6 0.2 90 0.6 W 28 35 15 19 1009.4 - 3.8
27/06:00am 1.4 -6.9 -0.1 90 0.5 W 33 41 18 22 1009.2 1009.5 3.6
27/05:38am 1.4 -6.3 0.2 92 0.4 W 30 48 16 26 1009.1 - 3.6
27/05:30am 1.8 -5.4 0.6 92 0.4 W 28 37 15 20 1009.0 - 3.4
27/05:00am 1.7 -5.5 0.4 91 0.5 W 28 35 15 19 1008.7 - 2.8
27/04:30am 1.7 -6.5 0.4 91 0.5 W 33 44 18 24 1008.4 - 2.6
27/04:01am 1.6 -6.4 0.3 91 0.5 W 32 50 17 27 1007.9 - 2.4
27/04:00am 1.6 -6.6 0.3 91 0.5 W 33 50 18 27 1008.0 - 2.2
27/03:30am 2.0 -5.2 0.7 91 0.5 W 28 50 15 27 1007.9 - 2.2
27/03:17am 2.1 -5.1 0.8 91 0.5 W 28 46 15 25 1007.6 - 2.2
27/03:00am 2.2 -4.6 0.9 91 0.5 WSW 26 43 14 23 1007.6 1007.9 2.0
27/02:30am 2.7 -5.2 1.2 90 0.6 WSW 32 52 17 28 1007.2 - 1.8
27/02:19am 2.9 -4.2 1.4 90 0.6 SW 28 46 15 25 1007.3 - 1.8
27/02:08am 3.5 -4.3 2.0 90 0.6 WSW 32 43 17 23 1007.1 - 1.6
27/02:00am 4.4 -5.3 2.8 89 0.6 W 43 50 23 27 1006.8 - 1.0
27/01:30am 5.3 -6.3 4.0 91 0.5 NW 54 69 29 37 1005.9 - 0.8
27/01:00am 5.5 -6.5 3.8 89 0.7 NW 56 67 30 36 1006.0 - 0.8
27/12:30am 5.5 -6.5 3.7 88 0.8 NW 56 65 30 35 1005.9 - 0.8
27/12:00am 5.6 -6.0 3.8 88 0.8 NW 54 69 29 37 1005.7 1006.0 0.8
 
Date/Time
EST
Temp
°C
App
Temp
°C
Dew
Point
Rel
Hum
%
Delta-T
°C
Wind Press
QNH
hPa
Press
MSL
hPa
Rain
since 9 am
mm
Dir
 
Spd
km/h
Gust
km/h
Spd
kts
Gust
kts
26/11:30pm 5.6 -6.6 3.9 89 0.7 NW 57 69 31 37 1005.5 - 0.8
26/11:00pm 5.7 -6.5 3.9 88 0.8 NW 57 72 31 39 1005.4 - 0.8
26/10:30pm 5.7 -6.5 3.7 87 0.8 NW 57 69 31 37 1005.2 - 0.8
26/10:00pm 5.8 -6.8 3.8 87 0.8 NW 59 72 32 39 1005.3 - 0.8
26/09:30pm 5.8 -7.1 4.0 88 0.8 NW 61 70 33 38 1005.1 - 0.8
26/09:00pm 5.8 -6.3 4.0 88 0.8 NW 57 74 31 40 1005.0 1005.3 0.8
26/08:30pm 5.9 -7.4 3.9 87 0.8 NW 63 76 34 41 1004.7 - 0.8
26/08:20pm 5.9 -6.6 4.1 88 0.8 NW 59 78 32 42 1004.6 - 0.8
26/08:00pm 5.7 -6.5 3.9 88 0.8 NW 57 74 31 40 1004.7 - 0.8
26/07:31pm 5.7 -6.3 3.9 88 0.8 NW 56 74 30 40 1004.8 - 0.8
26/07:30pm 5.8 -6.3 4.1 89 0.7 NW 57 74 31 40 1004.7 - 0.8
26/07:19pm 5.8 -5.8 4.1 89 0.7 NW 54 72 29 39 1004.8 - 0.8
26/07:00pm 5.7 -5.9 4.0 89 0.7 NW 54 69 29 37 1004.8 - 0.8
26/06:30pm 5.7 -6.2 4.2 90 0.6 NW 56 69 30 37 1004.8 - 0.8
26/06:00pm 5.8 -6.3 4.4 91 0.6 NW 57 72 31 39 1005.0 1005.3 0.8
26/05:37pm 5.6 -7.6 4.4 92 0.5 NW 63 82 34 44 1005.1 - 0.8
26/05:30pm 5.7 -8.2 4.5 92 0.5 NW 67 82 36 44 1005.1 - 0.8
26/05:13pm 5.8 -7.0 4.8 93 0.4 NW 61 80 33 43 1005.0 - 0.8
26/05:00pm 5.7 -7.1 4.5 92 0.5 NW 61 72 33 39 1005.2 - 0.8
26/04:30pm 6.0 -7.5 5.0 93 0.4 NW 65 78 35 42 1005.1 - 0.8
26/04:00pm 5.9 -7.3 4.7 92 0.5 NW 63 78 34 42 1005.2 - 0.8
26/03:30pm 5.9 -7.3 4.7 92 0.5 NW 63 78 34 42 1005.4 - 0.8
26/03:00pm 5.9 -6.8 4.9 93 0.4 NW 61 80 33 43 1005.6 1005.9 0.8
26/02:45pm 5.8 -6.2 4.8 93 0.4 NW 57 76 31 41 1005.7 - 0.8
26/02:30pm 5.6 -6.8 4.6 93 0.4 NW 59 74 32 40 1005.9 - 0.8
26/02:00pm 5.8 -6.6 4.8 93 0.4 NW 59 74 32 40 1005.8 - 0.8
26/01:30pm 5.7 -6.7 4.7 93 0.4 NW 59 80 32 43 1006.0 - 0.8
26/01:00pm 5.6 -7.2 4.4 92 0.5 NW 61 82 33 44 1006.2 - 0.8
26/12:31pm 5.4 -6.7 4.2 92 0.5 NW 57 76 31 41 1006.3 - 0.8
26/12:30pm 5.5 -7.0 4.3 92 0.5 NW 59 76 32 41 1006.4 - 0.8
26/12:00pm 5.2 -6.9 4.0 92 0.5 NW 57 76 31 41 1006.7 1007.0 0.8
26/11:30am 4.9 -7.3 3.7 92 0.5 NW 57 76 31 41 1007.3 - 0.8
26/11:00am 4.5 -7.8 3.3 92 0.5 NW 57 80 31 43 1007.7 - 0.6
26/10:36am 4.2 -8.5 2.9 91 0.5 NW 59 78 32 42 1008.2 - 0.6
26/10:30am 4.1 -8.6 2.8 91 0.5 NW 59 76 32 41 1008.4 - 0.6
26/10:00am 3.8 -9.4 2.2 89 0.6 NW 61 72 33 39 1009.2 - 0.4
26/09:37am 3.7 -7.9 1.7 87 0.8 NW 52 70 28 38 1009.6 - 0.2
26/09:30am 3.6 -8.4 1.5 86 0.8 NW 54 69 29 37 1009.8 - 0.2
26/09:02am 3.8 -8.7 0.7 80 1.2 NW 56 76 30 41 1010.5 - 0.0
26/09:00am 3.8 -8.7 0.7 80 1.2 NW 56 67 30 36 1010.6 1010.9 1.0
26/08:34am 3.5 -9.4 -0.3 76 1.4 NW 57 76 31 41 1011.2 - 0.8
26/08:30am 3.4 -10.1 0.3 80 1.2 NW 61 76 33 41 1011.3 - 0.8
26/08:26am 3.4 -11.7 0.1 79 1.2 NW 69 76 37 41 1011.2 - 0.8
26/08:23am 3.5 -8.0 0.2 79 1.2 NW 50 69 27 37 1011.3 - 0.8
26/08:00am 3.4 -9.5 -0.6 75 1.5 NW 57 69 31 37 1011.9 - 0.8
26/07:30am 3.7 -8.3 -0.9 72 1.7 NW 52 63 28 34 1011.9 - 0.8
26/07:00am 3.4 -7.9 -1.2 72 1.7 NW 48 57 26 31 1012.5 - 0.8
26/06:30am 3.2 -8.5 -1.7 70 1.7 WNW 50 59 27 32 1013.0 - 0.8
26/06:00am 3.1 -6.9 -1.4 72 1.6 WNW 41 50 22 27 1013.2 1013.5 0.8
26/05:30am 2.8 -6.4 -1.7 72 1.6 WNW 37 46 20 25 1013.6 - 0.8
26/05:00am 2.6 -7.5 -2.5 69 1.8 W 41 52 22 28 1013.3 - 0.8
26/04:30am 2.6 -8.9 -2.7 68 1.8 W 48 59 26 32 1013.3 - 0.8
26/04:00am 2.4 -9.5 -3.3 66 1.9 W 50 61 27 33 1013.0 - 0.8
26/03:30am 2.4 -9.9 -3.3 66 1.9 W 52 61 28 33 1012.8 - 0.8
26/03:00am 2.3 -9.6 -3.4 66 1.9 W 50 59 27 32 1012.4 1012.7 0.8
26/02:30am 2.4 -9.5 -3.3 66 1.9 W 50 65 27 35 1012.0 - 0.8
26/02:00am 2.2 -10.2 -3.9 64 2.0 W 52 70 28 38 1011.8 - 0.8
26/01:30am 2.2 -10.5 -3.9 64 2.0 W 54 72 29 39 1011.3 - 0.8
26/01:00am 2.2 -9.4 -3.7 65 2.0 W 48 70 26 38 1010.6 - 0.8
26/12:30am 2.2 -11.1 -4.1 63 2.1 W 57 82 31 44 1009.8 - 0.8
26/12:00am 2.2 -11.1 -3.9 64 2.0 W 57 82 31 44 1009.1 1009.4 0.8
 
Date/Time
EST
Temp
°C
App
Temp
°C
Dew
Point
Rel
Hum
%
Delta-T
°C
Wind Press
QNH
hPa
Press
MSL
hPa
Rain
since 9 am
mm
Dir
 
Spd
km/h
Gust
km/h
Spd
kts
Gust
kts
25/11:30pm 2.2 -11.9 -4.1 63 2.1 W 61 89 33 48 1008.3 - 0.8
25/11:01pm 2.1 -12.4 -4.2 63 2.1 W 63 82 34 44 1007.6 - 0.8
25/11:00pm 2.1 -12.7 -4.0 64 2.0 W 65 82 35 44 1007.4 - 0.8
25/10:43pm 1.6 -9.4 -2.3 75 1.3 W 46 85 25 46 1006.8 - 0.8
25/10:32pm 1.2 -9.3 -2.7 75 1.4 W 43 67 23 36 1007.1 - 0.8
25/10:30pm 1.7 -13.0 -2.6 73 1.5 W 65 91 35 49 1006.6 - 0.8
25/10:00pm 2.1 -12.3 -3.4 67 1.8 W 63 96 34 52 1005.3 - 0.8
25/09:30pm 1.5 -12.4 -2.8 73 1.5 W 61 89 33 48 1004.8 - 0.8
25/09:09pm 2.2 -14.3 -3.1 68 1.8 W 74 100 40 54 1003.7 - 0.8
25/09:07pm 2.6 -14.2 -2.7 68 1.8 W 76 89 41 48 1003.5 - 0.8
25/09:00pm 2.3 -10.7 -2.6 70 1.7 W 56 87 30 47 1003.3 1003.6 0.8
25/08:30pm 2.2 -11.0 -2.9 69 1.7 W 57 87 31 47 1002.3 - 0.8
25/08:00pm 2.5 -11.8 -2.4 70 1.7 W 63 87 34 47 1001.2 - 0.8
25/07:30pm 2.3 -13.9 -4.2 62 2.1 W 72 111 39 60 1000.3 - 0.8
25/07:18pm 2.0 -14.1 -3.5 67 1.8 W 72 109 39 59 999.8 - 0.8
25/07:00pm 2.3 -13.1 -2.4 71 1.6 W 69 91 37 49 999.0 - 0.8
25/06:30pm 2.6 -14.7 -3.9 62 2.2 W 78 104 42 56 998.2 - 0.8
25/06:00pm 2.5 -14.4 -3.6 64 2.1 W 76 98 41 53 997.5 997.8 0.8
25/05:30pm 2.6 -14.6 -3.1 66 1.9 W 78 102 42 55 996.5 - 0.8
25/05:00pm 1.4 -14.9 -2.2 77 1.2 W 74 93 40 50 995.9 - 0.8
25/04:30pm 2.6 -14.3 -3.7 63 2.1 W 76 98 41 53 994.8 - 0.8
25/04:00pm 2.6 -15.4 -3.7 63 2.1 W 82 109 44 59 994.3 - 0.8
25/03:30pm 2.6 -13.4 -2.3 70 1.7 W 72 95 39 51 993.2 - 0.8
25/03:00pm 2.4 -14.3 -2.1 72 1.6 W 76 104 41 56 992.7 993.0 0.8
25/02:30pm 1.9 -14.4 -1.5 78 1.2 W 74 100 40 54 992.5 - 0.8
25/02:26pm 1.8 -16.0 -1.8 77 1.3 W 82 100 44 54 992.4 - 0.8
25/02:20pm 2.1 -17.0 -1.3 78 1.2 W 89 100 48 54 992.0 - 0.8
25/02:15pm 2.1 -11.8 -2.2 73 1.5 W 61 96 33 52 991.7 - 0.8
25/02:00pm 2.7 -10.7 -1.3 75 1.4 W 59 78 32 42 991.4 - 0.8
25/01:30pm 3.1 -12.9 -2.6 66 2.0 W 72 91 39 49 990.9 - 0.8
25/01:18pm 3.2 -11.9 -2.7 65 2.0 W 67 85 36 46 990.7 - 0.8
25/01:00pm 2.8 -13.6 -2.5 68 1.8 W 74 85 40 46 990.4 - 0.8
25/12:59pm 2.8 -14.0 -2.5 68 1.8 W 76 85 41 46 990.4 - 0.8
25/12:45pm 2.4 -10.3 -0.7 80 1.1 W 56 76 30 41 990.3 - 0.8
25/12:30pm 2.8 -10.1 -0.5 79 1.2 W 57 74 31 40 990.1 - 0.8
25/12:04pm 2.1 -11.4 -2.2 73 1.5 W 59 78 32 42 989.8 - 0.8
25/12:00pm 1.8 -11.1 -1.8 77 1.3 W 56 70 30 38 989.8 990.1 0.8
25/11:59am 1.5 -11.1 -2.3 76 1.3 W 54 69 29 37 989.8 - 0.8
25/11:57am 1.7 -14.6 -1.9 77 1.2 W 74 95 40 51 989.8 - 0.8
25/11:56am 2.0 -15.4 -1.8 76 1.3 W 80 95 43 51 989.8 - 0.8
25/11:35am 2.0 -11.0 -1.6 77 1.3 W 57 78 31 42 989.7 - 0.8
25/11:30am 1.7 -11.3 -1.5 79 1.1 W 57 72 31 39 989.7 - 0.8
25/11:00am 1.6 -13.4 -2.3 75 1.3 W 67 91 36 49 989.8 - 0.6
25/10:35am 2.1 -12.9 -2.0 74 1.4 W 67 96 36 52 989.0 - 0.6
25/10:30am 2.2 -13.1 -1.8 75 1.4 W 69 82 37 44 989.0 - 0.6
25/10:14am 1.7 -9.6 -1.4 80 1.1 W 48 69 26 37 988.8 - 0.6
25/10:00am 1.3 -12.0 -1.1 84 0.8 W 59 76 32 41 988.6 - 0.6
25/09:31am 0.6 -13.6 -1.8 84 0.9 W 63 100 34 54 989.4 - 0.2
25/09:30am 1.2 -12.6 -1.4 83 0.9 W 61 76 33 41 988.6 - 0.2
25/09:00am 0.1 -14.8 -1.2 91 0.5 W 67 87 36 47 988.8 989.1 3.6
25/08:48am 0.1 -16.6 -2.4 83 0.9 W 76 95 41 51 988.8 - 3.6
25/08:46am 1.7 -10.3 -0.9 83 0.9 W 52 74 28 40 988.1 - 3.6
25/08:30am 1.4 -12.3 -1.0 84 0.9 W 61 78 33 42 988.1 - 3.6
25/08:05am 2.1 -11.7 -2.0 74 1.4 W 61 95 33 51 987.7 - 3.4
25/08:00am 2.7 -10.6 -0.7 78 1.2 W 59 74 32 40 987.4 - 3.4
25/07:48am 2.1 -10.7 -1.5 77 1.3 W 56 74 30 40 987.4 - 3.4
25/07:45am 1.9 -10.1 -1.0 81 1.0 W 52 61 28 33 987.4 - 3.4
25/07:34am 1.4 -14.4 -1.3 82 0.9 W 72 91 39 49 987.7 - 3.4
25/07:30am 1.6 -15.4 -1.6 79 1.1 W 78 91 42 49 987.8 - 3.4
25/07:24am 2.1 -10.7 -1.5 77 1.3 W 56 74 30 40 987.3 - 3.4
25/07:22am 2.1 -10.4 -1.5 77 1.3 W 54 65 29 35 987.4 - 3.4
25/07:09am 2.0 -13.9 -1.8 76 1.3 W 72 91 39 49 987.4 - 3.4
25/07:04am 1.9 -15.5 -1.5 78 1.2 W 80 91 43 49 987.1 - 3.4
25/07:00am 2.0 -11.0 -1.1 80 1.1 W 57 80 31 43 986.8 - 3.4
25/06:50am 1.3 -11.4 -0.5 88 0.6 W 56 74 30 40 987.0 - 3.4
25/06:45am 1.1 -11.8 -0.7 88 0.6 W 57 70 31 38 987.3 - 3.2
25/06:39am 1.3 -16.0 -0.8 86 0.7 WNW 80 100 43 54 986.7 - 3.2
25/06:37am 2.0 -9.5 -0.4 84 0.9 W 50 83 27 45 987.2 - 3.2
25/06:32am 2.2 -9.3 -0.4 83 0.9 W 50 59 27 32 986.8 - 3.2
25/06:30am 2.8 -10.0 0.2 83 1.0 WNW 57 74 31 40 986.8 - 3.2
25/06:00am 2.0 -11.6 -0.4 84 0.9 WNW 61 93 33 50 986.3 986.6 3.0
25/05:33am 3.6 -10.5 -0.8 73 1.6 WNW 63 87 34 47 985.9 - 2.8
25/05:30am 3.9 -9.8 -1.1 70 1.8 WNW 61 76 33 41 985.7 - 2.8
25/05:08am 3.7 -9.2 -0.9 72 1.7 WNW 57 76 31 41 986.0 - 2.8

Other Formats:

Comma delimited format used in spreadsheet applications
http://www.bom.gov.au/fwo/IDT60801/IDT60801.94998.axf

JavaScript Object Notation format (JSON) in row-major order
http://www.bom.gov.au/fwo/IDT60801/IDT60801.94998.json